Time;durP1;ratioP1;P1;durP2;ratioP2;P2;SDS_P1;SDS_P2;PMS_P1;PMS_P2;Temp;Humidity;BMP_temperature;BMP_pressure;BME280_temperature;BME280_humidity;BME280_pressure;Samples;Min_cycle;Max_cycle;Signal;HPM_P1;HPM_P2
2023/09/24 00:01:50;;;;;;;12.48;5.00;;;;;;;;;;5033852;28;20047;-73
2023/09/24 00:04:17;;;;;;;11.93;5.50;;;;;;;;;;5033216;28;20041;-73
2023/09/24 00:06:45;;;;;;;10.27;4.78;;;;;;;;;;5032803;28;20044;-72
2023/09/24 00:09:13;;;;;;;10.32;5.10;;;;;;;;;;5032869;28;20051;-73
2023/09/24 00:11:39;;;;;;;9.45;5.30;;;;;;;;;;5033327;28;20068;-74
2023/09/24 00:14:05;;;;;;;9.98;5.13;;;;;;;;;;5032853;28;20064;-73
2023/09/24 00:16:31;;;;;;;10.15;4.72;;;;;;;;;;5030357;28;20041;-73
2023/09/24 00:18:57;;;;;;;7.00;4.93;;;;;;;;;;5032110;28;20041;-73
2023/09/24 00:21:25;;;;;;;15.50;5.47;;;;;;;;;;5035150;28;20032;-73
2023/09/24 00:23:51;;;;;;;11.90;4.60;;;;;;;;;;5036883;28;20679;-74
2023/09/24 00:26:18;;;;;;;9.57;4.40;;;;;;;;;;5019357;28;20122;-73
2023/09/24 00:28:44;;;;;;;12.13;4.47;;;;;;;;;;5037521;28;20119;-73
2023/09/24 00:31:11;;;;;;;13.38;4.43;;;;;;;;;;5033570;28;20127;-73
2023/09/24 00:33:37;;;;;;;8.95;4.35;;;;;;;;;;5024520;28;20044;-73
2023/09/24 00:36:03;;;;;;;7.13;3.80;;;;;;;;;;5035354;28;20136;-73
2023/09/24 00:38:29;;;;;;;10.85;3.92;;;;;;;;;;5037320;28;20407;-73
2023/09/24 00:40:55;;;;;;;16.15;4.00;;;;;;;;;;5035587;28;20491;-73
2023/09/24 00:43:28;;;;;;;18.23;4.93;;;;;;;;;;5034089;28;20777;-74
2023/09/24 00:45:55;;;;;;;6.22;3.40;;;;;;;;;;5037318;28;20032;-73
2023/09/24 00:48:24;;;;;;;15.35;4.05;;;;;;;;;;5035745;28;20507;-73
2023/09/24 00:50:51;;;;;;;13.77;3.50;;;;;;;;;;5033644;28;20045;-74
2023/09/24 00:53:17;;;;;;;10.68;3.50;;;;;;;;;;5031043;28;20499;-73
2023/09/24 00:55:43;;;;;;;9.65;3.50;;;;;;;;;;5035016;28;20386;-73
2023/09/24 00:58:10;;;;;;;6.25;3.28;;;;;;;;;;5034780;28;20051;-73
2023/09/24 01:00:37;;;;;;;6.07;3.13;;;;;;;;;;5032727;28;20122;-73
2023/09/24 01:03:05;;;;;;;7.45;4.05;;;;;;;;;;5020832;28;20040;-73
2023/09/24 01:05:31;;;;;;;12.45;3.35;;;;;;;;;;5015917;28;20058;-73
2023/09/24 01:07:57;;;;;;;16.27;3.80;;;;;;;;;;5038252;28;20124;-73
2023/09/24 01:10:25;;;;;;;7.97;3.40;;;;;;;;;;5032527;28;20142;-73
2023/09/24 01:13:01;;;;;;;9.38;3.45;;;;;;;;;;5031603;28;20452;-74
2023/09/24 01:15:31;;;;;;;6.80;3.33;;;;;;;;;;5035684;28;20049;-73
2023/09/24 01:17:57;;;;;;;8.00;3.50;;;;;;;;;;5036791;28;20048;-74
2023/09/24 01:20:26;;;;;;;12.65;3.60;;;;;;;;;;5034098;28;20551;-74
2023/09/24 01:22:52;;;;;;;8.77;3.65;;;;;;;;;;5020800;28;20056;-73
2023/09/24 01:25:18;;;;;;;5.70;3.20;;;;;;;;;;5036961;28;20040;-73
2023/09/24 01:27:45;;;;;;;8.45;3.45;;;;;;;;;;5033685;28;20145;-73
2023/09/24 01:30:12;;;;;;;7.65;3.58;;;;;;;;;;5037599;28;20048;-73
2023/09/24 01:32:40;;;;;;;7.70;4.53;;;;;;;;;;5037263;28;20165;-73
2023/09/24 01:35:07;;;;;;;10.23;3.40;;;;;;;;;;5020627;28;20436;-71
2023/09/24 01:37:33;;;;;;;8.82;3.53;;;;;;;;;;5038707;28;20175;-72
2023/09/24 01:40:07;;;;;;;7.90;4.00;;;;;;;;;;5035635;28;20729;-73
2023/09/24 01:42:34;;;;;;;11.63;3.42;;;;;;;;;;5035404;28;20053;-73
2023/09/24 01:45:00;;;;;;;8.75;3.00;;;;;;;;;;5036633;28;20241;-73
2023/09/24 01:47:26;;;;;;;12.48;3.40;;;;;;;;;;5033918;28;20048;-73
2023/09/24 01:49:52;;;;;;;7.22;3.03;;;;;;;;;;5034539;28;20045;-72
2023/09/24 01:52:19;;;;;;;8.30;3.22;;;;;;;;;;5044928;28;20094;-73
2023/09/24 01:54:47;;;;;;;12.52;3.35;;;;;;;;;;5034893;28;20114;-73
2023/09/24 01:57:13;;;;;;;9.07;2.90;;;;;;;;;;5037268;28;20049;-73
2023/09/24 01:59:39;;;;;;;9.25;3.20;;;;;;;;;;5035532;28;20033;-73
2023/09/24 02:02:06;;;;;;;6.10;2.88;;;;;;;;;;5036165;28;20036;-73
2023/09/24 02:04:33;;;;;;;8.80;2.88;;;;;;;;;;5035453;28;20045;-72
2023/09/24 02:07:00;;;;;;;10.43;3.10;;;;;;;;;;5036304;28;20094;-73
2023/09/24 02:09:26;;;;;;;8.70;2.90;;;;;;;;;;5040330;28;20044;-72
2023/09/24 02:11:54;;;;;;;16.73;3.67;;;;;;;;;;5035872;28;20049;-72
2023/09/24 02:14:20;;;;;;;6.32;2.90;;;;;;;;;;5037260;28;20547;-72
2023/09/24 02:16:46;;;;;;;7.20;3.13;;;;;;;;;;5035132;28;20102;-73
2023/09/24 02:19:14;;;;;;;6.88;2.85;;;;;;;;;;5035685;28;20127;-73
2023/09/24 02:21:40;;;;;;;11.00;3.20;;;;;;;;;;5037028;28;21100;-72
2023/09/24 02:24:07;;;;;;;9.43;3.33;;;;;;;;;;5034463;28;20049;-72
2023/09/24 02:26:33;;;;;;;10.13;3.38;;;;;;;;;;5035845;28;20048;-72
2023/09/24 02:28:59;;;;;;;9.93;3.60;;;;;;;;;;5035791;28;20917;-72
2023/09/24 02:31:26;;;;;;;11.23;2.85;;;;;;;;;;5033908;28;20136;-73
2023/09/24 02:33:52;;;;;;;10.27;3.83;;;;;;;;;;5037101;28;20049;-72
2023/09/24 02:36:18;;;;;;;10.25;3.10;;;;;;;;;;5037224;28;20571;-72
2023/09/24 02:38:44;;;;;;;8.80;3.70;;;;;;;;;;5042243;28;20384;-73
2023/09/24 02:41:11;;;;;;;9.65;3.97;;;;;;;;;;5037255;28;20063;-72
2023/09/24 02:43:37;;;;;;;7.95;3.47;;;;;;;;;;5039978;28;20044;-72
2023/09/24 02:46:06;;;;;;;12.40;3.88;;;;;;;;;;5037938;28;20515;-72
2023/09/24 02:48:33;;;;;;;13.02;3.50;;;;;;;;;;5037339;28;20572;-72
2023/09/24 02:51:08;;;;;;;11.38;3.38;;;;;;;;;;5038853;28;20080;-72
2023/09/24 02:53:35;;;;;;;13.18;4.05;;;;;;;;;;5035963;28;20053;-72
2023/09/24 02:56:04;;;;;;;13.13;3.92;;;;;;;;;;5038905;28;20040;-72
2023/09/24 02:58:34;;;;;;;44.72;4.25;;;;;;;;;;5035792;28;20469;-72
2023/09/24 03:01:00;;;;;;;11.45;3.80;;;;;;;;;;5036610;28;20056;-72
2023/09/24 03:03:26;;;;;;;5.32;4.30;;;;;;;;;;5037388;28;20040;-73
2023/09/24 03:05:53;;;;;;;14.15;4.00;;;;;;;;;;5032912;28;20510;-72
2023/09/24 03:08:21;;;;;;;12.48;4.70;;;;;;;;;;5033764;28;20186;-72
2023/09/24 03:10:47;;;;;;;9.50;4.57;;;;;;;;;;5033816;28;20044;-72
2023/09/24 03:13:14;;;;;;;12.32;4.53;;;;;;;;;;5032544;28;20149;-72
2023/09/24 03:15:40;;;;;;;14.13;5.00;;;;;;;;;;5021965;28;20855;-72
2023/09/24 03:18:06;;;;;;;10.00;4.90;;;;;;;;;;5030344;28;20059;-72
2023/09/24 03:20:32;;;;;;;12.65;4.43;;;;;;;;;;5023713;28;20045;-72
2023/09/24 03:23:02;;;;;;;17.42;4.60;;;;;;;;;;5032527;28;20157;-72
2023/09/24 03:25:28;;;;;;;8.98;3.92;;;;;;;;;;5027791;28;20045;-73
2023/09/24 03:27:56;;;;;;;11.07;4.10;;;;;;;;;;5032086;28;20051;-72
2023/09/24 03:30:22;;;;;;;15.68;3.88;;;;;;;;;;5035164;28;20037;-73
2023/09/24 03:32:50;;;;;;;18.38;4.07;;;;;;;;;;5032178;28;20076;-73
2023/09/24 03:35:17;;;;;;;11.73;3.72;;;;;;;;;;5029898;28;20102;-72
2023/09/24 03:37:44;;;;;;;21.63;4.38;;;;;;;;;;5030371;28;20444;-72
2023/09/24 03:40:20;;;;;;;12.57;4.50;;;;;;;;;;5033152;28;20450;-72
2023/09/24 03:42:49;;;;;;;9.68;4.30;;;;;;;;;;5030625;28;20067;-72
2023/09/24 03:45:16;;;;;;;9.23;4.60;;;;;;;;;;5026714;28;20049;-72
2023/09/24 03:47:42;;;;;;;9.02;4.63;;;;;;;;;;5029652;28;20046;-72
2023/09/24 03:50:16;;;;;;;6.97;4.28;;;;;;;;;;5030930;28;20052;-71
2023/09/24 03:52:42;;;;;;;;;;;;;;;;;;5030789;28;20951;-72
2023/09/24 03:55:08;;;;;;;9.80;5.00;;;;;;;;;;5031719;28;20007;-73
2023/09/24 03:57:35;;;;;;;8.88;5.28;;;;;;;;;;5030046;28;20153;-72
2023/09/24 04:00:02;;;;;;;7.30;5.10;;;;;;;;;;5031681;28;20044;-72
2023/09/24 04:02:29;;;;;;;8.75;5.82;;;;;;;;;;5033062;28;20093;-72
2023/09/24 04:04:55;;;;;;;12.35;5.80;;;;;;;;;;5029868;28;20751;-73
2023/09/24 04:07:21;;;;;;;11.05;5.95;;;;;;;;;;5029860;28;20127;-72
2023/09/24 04:09:47;;;;;;;14.95;7.32;;;;;;;;;;5030745;28;20055;-72
2023/09/24 04:12:13;;;;;;;12.00;5.97;;;;;;;;;;5032522;28;20041;-73
2023/09/24 04:14:40;;;;;;;15.68;6.53;;;;;;;;;;5016039;28;20114;-73
2023/09/24 04:17:06;;;;;;;13.07;6.85;;;;;;;;;;5034539;28;20076;-73
2023/09/24 04:19:33;;;;;;;13.73;6.53;;;;;;;;;;5030305;28;20055;-74
2023/09/24 04:21:59;;;;;;;10.88;6.45;;;;;;;;;;5030323;28;20049;-74
2023/09/24 04:24:25;;;;;;;13.35;6.57;;;;;;;;;;5017001;28;20064;-74
2023/09/24 04:26:56;;;;;;;12.38;7.32;;;;;;;;;;5031538;28;20106;-73
2023/09/24 04:29:22;;;;;;;12.70;6.63;;;;;;;;;;5031273;28;20048;-74
2023/09/24 04:31:48;;;;;;;13.32;6.32;;;;;;;;;;5016473;28;20049;-74
2023/09/24 04:34:14;;;;;;;14.30;6.57;;;;;;;;;;5030720;28;20059;-74
2023/09/24 04:36:41;;;;;;;9.13;6.65;;;;;;;;;;5030158;28;20040;-74
2023/09/24 04:39:10;;;;;;;11.73;6.70;;;;;;;;;;5032670;28;20044;-74
2023/09/24 04:41:37;;;;;;;13.90;6.82;;;;;;;;;;5015484;28;20123;-74
2023/09/24 04:44:03;;;;;;;13.32;7.63;;;;;;;;;;5027365;28;20111;-74
2023/09/24 04:46:29;;;;;;;16.02;7.75;;;;;;;;;;5023642;28;20057;-74
2023/09/24 04:48:55;;;;;;;12.38;7.75;;;;;;;;;;5025342;28;20051;-74
2023/09/24 04:51:21;;;;;;;14.85;8.05;;;;;;;;;;5032063;28;20044;-74
2023/09/24 04:53:47;;;;;;;14.15;7.65;;;;;;;;;;5025755;28;20182;-73
2023/09/24 04:56:14;;;;;;;17.23;7.80;;;;;;;;;;5026112;28;20037;-75
2023/09/24 04:58:40;;;;;;;14.50;7.97;;;;;;;;;;5029226;28;20093;-74
2023/09/24 05:01:06;;;;;;;11.63;7.68;;;;;;;;;;5027683;28;20041;-74
2023/09/24 05:03:32;;;;;;;14.07;7.72;;;;;;;;;;5031084;28;20041;-74
2023/09/24 05:05:59;;;;;;;15.98;8.20;;;;;;;;;;5031188;28;20056;-74
2023/09/24 05:08:25;;;;;;;16.10;9.10;;;;;;;;;;5021949;28;20045;-74
2023/09/24 05:10:51;;;;;;;14.05;8.98;;;;;;;;;;5031434;28;20099;-74
2023/09/24 05:13:17;;;;;;;18.02;9.93;;;;;;;;;;5025461;28;20061;-74
2023/09/24 05:15:50;;;;;;;18.60;11.52;;;;;;;;;;5027890;28;20749;-74
2023/09/24 05:18:16;;;;;;;17.73;10.63;;;;;;;;;;5030962;28;20060;-74
2023/09/24 05:20:43;;;;;;;15.18;9.98;;;;;;;;;;5028473;28;20040;-74
2023/09/24 05:23:09;;;;;;;15.27;9.82;;;;;;;;;;5026569;28;20049;-74
2023/09/24 05:25:37;;;;;;;17.60;10.70;;;;;;;;;;5027440;28;20040;-75
2023/09/24 05:28:03;;;;;;;25.83;10.38;;;;;;;;;;5011160;28;20064;-74
2023/09/24 05:30:29;;;;;;;33.67;10.82;;;;;;;;;;5009226;28;20049;-74
2023/09/24 05:32:55;;;;;;;17.48;10.00;;;;;;;;;;5012438;28;20049;-74
2023/09/24 05:35:22;;;;;;;38.50;10.30;;;;;;;;;;5028887;28;20041;-74
2023/09/24 05:37:48;;;;;;;27.75;11.25;;;;;;;;;;5027798;28;20044;-74
2023/09/24 05:40:15;;;;;;;27.50;10.82;;;;;;;;;;5042456;28;20041;-75
2023/09/24 05:42:41;;;;;;;35.85;10.25;;;;;;;;;;5010210;28;20051;-75
2023/09/24 05:45:07;;;;;;;25.48;11.25;;;;;;;;;;5020579;28;20033;-74
2023/09/24 05:47:34;;;;;;;36.28;11.90;;;;;;;;;;5030734;28;20528;-76
2023/09/24 05:50:02;;;;;;;29.33;11.30;;;;;;;;;;5027430;28;20093;-75
2023/09/24 05:52:28;;;;;;;21.00;11.90;;;;;;;;;;5024598;28;20450;-75
2023/09/24 05:54:54;;;;;;;20.60;11.60;;;;;;;;;;5031808;28;20037;-75
2023/09/24 05:57:21;;;;;;;19.10;11.45;;;;;;;;;;5035214;28;20040;-75
2023/09/24 05:59:47;;;;;;;21.45;11.38;;;;;;;;;;5026501;28;20045;-73
2023/09/24 06:02:13;;;;;;;22.15;12.27;;;;;;;;;;5035567;28;20040;-73
2023/09/24 06:04:39;;;;;;;18.33;11.77;;;;;;;;;;5011085;28;20051;-73
2023/09/24 06:07:05;;;;;;;16.42;11.50;;;;;;;;;;5029499;28;20044;-74
2023/09/24 06:09:31;;;;;;;17.88;11.60;;;;;;;;;;5027554;28;20441;-74
2023/09/24 06:11:58;;;;;;;20.55;12.23;;;;;;;;;;5034653;28;20707;-74
2023/09/24 06:14:24;;;;;;;20.65;12.35;;;;;;;;;;5033161;28;20573;-73
2023/09/24 06:16:50;;;;;;;19.45;12.90;;;;;;;;;;5032665;28;20055;-73
2023/09/24 06:19:16;;;;;;;19.73;11.90;;;;;;;;;;5027602;28;20044;-74
2023/09/24 06:21:42;;;;;;;19.45;12.35;;;;;;;;;;5032636;28;20041;-73
2023/09/24 06:24:08;;;;;;;19.33;12.68;;;;;;;;;;5032790;28;20574;-74
2023/09/24 06:26:35;;;;;;;19.27;12.50;;;;;;;;;;5042339;28;20041;-75
2023/09/24 06:29:01;;;;;;;22.23;12.25;;;;;;;;;;5037289;28;20098;-74
2023/09/24 06:31:27;;;;;;;23.58;12.10;;;;;;;;;;5018546;28;20106;-74
2023/09/24 06:33:53;;;;;;;17.05;12.35;;;;;;;;;;5035492;28;20048;-74
2023/09/24 06:36:20;;;;;;;15.45;12.00;;;;;;;;;;5034476;28;21104;-75
2023/09/24 06:38:47;;;;;;;23.13;11.88;;;;;;;;;;5031636;28;20081;-74
2023/09/24 06:41:13;;;;;;;17.98;10.98;;;;;;;;;;5032434;28;20116;-75
2023/09/24 06:43:39;;;;;;;19.02;11.02;;;;;;;;;;5014978;28;20048;-75
2023/09/24 06:46:05;;;;;;;18.55;12.00;;;;;;;;;;5028096;28;20129;-75
2023/09/24 06:48:31;;;;;;;15.90;11.52;;;;;;;;;;5027197;28;20071;-74
2023/09/24 06:51:05;;;;;;;17.23;11.73;;;;;;;;;;5027714;28;20132;-75
2023/09/24 06:53:31;;;;;;;;;;;;;;;;;;5014831;28;20056;-74
2023/09/24 06:55:57;;;;;;;16.23;10.68;;;;;;;;;;5031183;28;19921;-74
2023/09/24 06:58:23;;;;;;;23.35;11.40;;;;;;;;;;5029740;28;20131;-74
2023/09/24 07:00:49;;;;;;;15.00;10.00;;;;;;;;;;5024012;28;20089;-74
2023/09/24 07:03:16;;;;;;;18.25;10.55;;;;;;;;;;5029710;28;20045;-74
2023/09/24 07:05:42;;;;;;;15.32;10.60;;;;;;;;;;5028109;28;20059;-74
2023/09/24 07:08:08;;;;;;;22.75;11.10;;;;;;;;;;5028450;28;20059;-74
2023/09/24 07:10:34;;;;;;;16.17;10.30;;;;;;;;;;5031984;28;20136;-74
2023/09/24 07:13:00;;;;;;;14.98;9.00;;;;;;;;;;5027739;28;20116;-73
2023/09/24 07:15:27;;;;;;;21.60;10.18;;;;;;;;;;5030480;28;20057;-74
2023/09/24 07:17:53;;;;;;;14.80;9.10;;;;;;;;;;5025225;28;20045;-74
2023/09/24 07:20:20;;;;;;;13.27;8.55;;;;;;;;;;5025850;28;20125;-73
2023/09/24 07:22:46;;;;;;;17.17;8.68;;;;;;;;;;5025678;28;20055;-73
2023/09/24 07:25:12;;;;;;;12.40;8.50;;;;;;;;;;5029268;28;21875;-74
2023/09/24 07:27:38;;;;;;;13.32;7.78;;;;;;;;;;5033879;28;20091;-74
2023/09/24 07:30:04;;;;;;;11.63;7.40;;;;;;;;;;5029682;28;20051;-74
2023/09/24 07:32:31;;;;;;;10.80;6.85;;;;;;;;;;5024039;28;20171;-74
2023/09/24 07:34:57;;;;;;;15.10;7.72;;;;;;;;;;5022214;28;20049;-74
2023/09/24 07:37:23;;;;;;;14.07;6.95;;;;;;;;;;5021030;28;20335;-74
2023/09/24 07:39:49;;;;;;;11.38;7.38;;;;;;;;;;4996441;28;20523;-74
2023/09/24 07:42:17;;;;;;;13.93;6.57;;;;;;;;;;5024392;28;20053;-74
2023/09/24 07:44:43;;;;;;;11.70;6.30;;;;;;;;;;5022840;28;20032;-73
2023/09/24 07:47:09;;;;;;;14.98;6.90;;;;;;;;;;5028057;28;20059;-74
2023/09/24 07:49:35;;;;;;;15.73;6.90;;;;;;;;;;5001217;28;20044;-73
2023/09/24 07:52:01;;;;;;;10.25;6.88;;;;;;;;;;5021149;28;20045;-74
2023/09/24 07:54:28;;;;;;;10.70;6.03;;;;;;;;;;5020009;28;20102;-73
2023/09/24 07:56:54;;;;;;;12.43;6.10;;;;;;;;;;5019287;28;20041;-74
2023/09/24 07:59:23;;;;;;;14.23;6.38;;;;;;;;;;5006544;28;20041;-74
2023/09/24 08:01:49;;;;;;;12.38;6.18;;;;;;;;;;5020451;28;20048;-74
2023/09/24 08:04:15;;;;;;;11.20;6.22;;;;;;;;;;5023914;28;20485;-74
2023/09/24 08:06:42;;;;;;;10.48;5.28;;;;;;;;;;5005882;28;20077;-73
2023/09/24 08:09:08;;;;;;;11.48;6.18;;;;;;;;;;5028331;28;20048;-74
2023/09/24 08:11:34;;;;;;;13.20;6.05;;;;;;;;;;5032197;28;20071;-74
2023/09/24 08:14:01;;;;;;;12.45;5.63;;;;;;;;;;5024392;28;20060;-74
2023/09/24 08:16:28;;;;;;;13.90;5.60;;;;;;;;;;5022034;28;20044;-74
2023/09/24 08:18:54;;;;;;;9.50;5.53;;;;;;;;;;5022199;28;22684;-73
2023/09/24 08:21:20;;;;;;;11.07;5.38;;;;;;;;;;5023123;28;20514;-73
2023/09/24 08:23:46;;;;;;;9.45;6.00;;;;;;;;;;5023395;28;20218;-74
2023/09/24 08:26:13;;;;;;;12.30;5.65;;;;;;;;;;5023501;28;20045;-74
2023/09/24 08:28:39;;;;;;;9.05;5.45;;;;;;;;;;5025168;28;20055;-74
2023/09/24 08:31:08;;;;;;;8.27;5.00;;;;;;;;;;5025677;28;20048;-74
2023/09/24 08:33:34;;;;;;;8.70;4.90;;;;;;;;;;5019647;28;20037;-73
2023/09/24 08:36:00;;;;;;;7.13;4.40;;;;;;;;;;5024699;28;20186;-74
2023/09/24 08:38:26;;;;;;;11.70;4.60;;;;;;;;;;5021835;28;20080;-73
2023/09/24 08:40:53;;;;;;;8.18;4.47;;;;;;;;;;5029845;28;20036;-73
2023/09/24 08:43:20;;;;;;;10.30;4.20;;;;;;;;;;5030735;28;20403;-74
2023/09/24 08:45:48;;;;;;;9.63;4.38;;;;;;;;;;5030211;28;20179;-74
2023/09/24 08:48:15;;;;;;;12.00;4.57;;;;;;;;;;5030473;28;20041;-74
2023/09/24 08:50:42;;;;;;;13.40;4.68;;;;;;;;;;5029606;28;20239;-74
2023/09/24 08:53:11;;;;;;;16.90;3.97;;;;;;;;;;5029822;28;20068;-74
2023/09/24 08:55:40;;;;;;;6.78;3.30;;;;;;;;;;5031060;28;20172;-74
2023/09/24 08:58:06;;;;;;;7.45;3.72;;;;;;;;;;5031245;28;20045;-74
2023/09/24 09:00:32;;;;;;;7.68;2.75;;;;;;;;;;5028377;28;20128;-74
2023/09/24 09:03:03;;;;;;;7.82;3.50;;;;;;;;;;5027075;28;20127;-74
2023/09/24 09:05:30;;;;;;;8.52;3.08;;;;;;;;;;5028963;28;20141;-74
2023/09/24 09:07:58;;;;;;;8.13;3.35;;;;;;;;;;5027089;28;20497;-74
2023/09/24 09:10:28;;;;;;;6.55;2.97;;;;;;;;;;5027761;28;20493;-74
2023/09/24 09:13:06;;;;;;;8.25;3.10;;;;;;;;;;5024228;28;20102;-74
2023/09/24 09:15:35;;;;;;;6.68;2.85;;;;;;;;;;5017116;28;20061;-74
2023/09/24 09:18:02;;;;;;;6.25;2.63;;;;;;;;;;5026389;28;20135;-74
2023/09/24 09:20:48;;;;;;;5.13;2.90;;;;;;;;;;5024861;28;20523;-74
2023/09/24 09:23:16;;;;;;;7.43;2.78;;;;;;;;;;5026394;28;20449;-74
2023/09/24 09:25:54;;;;;;;8.77;2.65;;;;;;;;;;5024060;28;20056;-74
2023/09/24 09:28:24;;;;;;;8.50;3.35;;;;;;;;;;5026232;28;20045;-74
2023/09/24 09:31:07;;;;;;;8.00;2.65;;;;;;;;;;5020058;28;20780;-74
2023/09/24 09:33:37;;;;;;;6.20;2.65;;;;;;;;;;5018417;28;20045;-74
2023/09/24 09:36:03;;;;;;;5.80;2.60;;;;;;;;;;5020324;28;20128;-74
2023/09/24 09:38:30;;;;;;;4.78;2.60;;;;;;;;;;5017684;28;20036;-74
2023/09/24 09:40:57;;;;;;;5.50;2.70;;;;;;;;;;5018511;28;20099;-74
2023/09/24 09:43:25;;;;;;;6.70;2.47;;;;;;;;;;5020292;28;20071;-73
2023/09/24 09:45:52;;;;;;;4.85;2.35;;;;;;;;;;5022009;28;20159;-74
2023/09/24 09:48:22;;;;;;;6.88;2.65;;;;;;;;;;5028253;28;20048;-74
2023/09/24 09:50:49;;;;;;;7.53;2.78;;;;;;;;;;5027609;28;20044;-74
2023/09/24 09:53:17;;;;;;;5.82;2.47;;;;;;;;;;5028867;28;20210;-74
2023/09/24 09:55:44;;;;;;;9.38;3.10;;;;;;;;;;5031477;28;20135;-74
2023/09/24 09:58:11;;;;;;;8.07;2.90;;;;;;;;;;5030805;28;20064;-74
2023/09/24 10:00:39;;;;;;;6.82;2.17;;;;;;;;;;5029791;28;20040;-74
2023/09/24 10:03:06;;;;;;;9.38;3.13;;;;;;;;;;5005020;28;20401;-74
2023/09/24 10:05:32;;;;;;;7.70;2.90;;;;;;;;;;5030056;28;20102;-74
2023/09/24 10:07:58;;;;;;;6.53;2.25;;;;;;;;;;5014686;28;20045;-74
2023/09/24 10:10:34;;;;;;;5.80;2.60;;;;;;;;;;5031220;28;20132;-74
2023/09/24 10:13:04;;;;;;;8.02;3.58;;;;;;;;;;5033632;28;20044;-74
2023/09/24 10:15:31;;;;;;;6.20;2.40;;;;;;;;;;5030136;28;20144;-74
2023/09/24 10:18:12;;;;;;;7.25;2.40;;;;;;;;;;5030571;28;20124;-74
2023/09/24 10:20:50;;;;;;;5.35;2.15;;;;;;;;;;5027178;28;20654;-73
2023/09/24 10:23:28;;;;;;;4.88;2.05;;;;;;;;;;5025620;28;20122;-74
2023/09/24 10:25:56;;;;;;;7.18;2.92;;;;;;;;;;4999625;28;20041;-74
2023/09/24 10:28:43;;;;;;;4.22;1.80;;;;;;;;;;5025132;28;20229;-73
2023/09/24 10:31:10;;;;;;;9.23;2.90;;;;;;;;;;5024220;28;20052;-74
2023/09/24 10:33:51;;;;;;;4.82;2.28;;;;;;;;;;5027680;28;20407;-74
2023/09/24 10:36:29;;;;;;;6.50;2.92;;;;;;;;;;5027713;28;20041;-74
2023/09/24 10:39:14;;;;;;;7.13;2.05;;;;;;;;;;5029598;28;20060;-74
2023/09/24 10:41:58;;;;;;;8.93;2.40;;;;;;;;;;5035847;28;20072;-74
2023/09/24 10:44:24;;;;;;;4.15;2.05;;;;;;;;;;5033310;28;20619;-74
2023/09/24 10:46:51;;;;;;;5.00;2.30;;;;;;;;;;5029633;28;20054;-74
2023/09/24 10:49:21;;;;;;;8.10;2.30;;;;;;;;;;5031660;28;20044;-74
2023/09/24 10:51:50;;;;;;;7.82;2.25;;;;;;;;;;5033002;28;20135;-74
2023/09/24 10:54:17;;;;;;;8.68;1.83;;;;;;;;;;5033015;28;20048;-74
2023/09/24 10:56:47;;;;;;;7.80;2.50;;;;;;;;;;5004170;28;20087;-75
2023/09/24 10:59:14;;;;;;;5.10;1.83;;;;;;;;;;5032218;28;20063;-75
2023/09/24 11:01:40;;;;;;;4.88;1.90;;;;;;;;;;5031500;28;20070;-75
2023/09/24 11:04:08;;;;;;;5.38;2.33;;;;;;;;;;5033686;28;20056;-74
2023/09/24 11:06:35;;;;;;;4.18;1.75;;;;;;;;;;5030905;28;20566;-75
2023/09/24 11:09:18;;;;;;;5.72;1.80;;;;;;;;;;5029902;28;20041;-75
2023/09/24 11:11:44;;;;;;;3.00;2.25;;;;;;;;;;5031785;28;20723;-75
2023/09/24 11:14:20;;;;;;;4.20;1.70;;;;;;;;;;5035755;28;20677;-75
2023/09/24 11:16:46;;;;;;;7.18;2.22;;;;;;;;;;5030383;28;20345;-75
2023/09/24 11:19:12;;;;;;;6.72;2.33;;;;;;;;;;5029747;28;20043;-75
2023/09/24 11:21:39;;;;;;;5.15;2.03;;;;;;;;;;5032463;28;20553;-75
2023/09/24 11:24:18;;;;;;;4.68;1.67;;;;;;;;;;5032533;28;20045;-74
2023/09/24 11:26:45;;;;;;;3.67;1.88;;;;;;;;;;5014200;28;20128;-76
2023/09/24 11:29:11;;;;;;;6.10;1.83;;;;;;;;;;5016249;28;20068;-75
2023/09/24 11:31:43;;;;;;;5.03;2.15;;;;;;;;;;5034302;28;20044;-75
2023/09/24 11:34:09;;;;;;;5.15;2.20;;;;;;;;;;5035234;28;20079;-74
2023/09/24 11:36:35;;;;;;;4.82;2.10;;;;;;;;;;5014855;28;20128;-74
2023/09/24 11:39:02;;;;;;;6.18;2.83;;;;;;;;;;5034076;28;20076;-74
2023/09/24 11:41:28;;;;;;;5.50;1.83;;;;;;;;;;5034552;28;20097;-74
2023/09/24 11:43:56;;;;;;;4.20;1.83;;;;;;;;;;5032934;28;20139;-75
2023/09/24 11:46:25;;;;;;;4.82;1.92;;;;;;;;;;5031871;28;20118;-75
2023/09/24 11:48:52;;;;;;;5.47;2.08;;;;;;;;;;5034042;28;20993;-74
2023/09/24 11:51:20;;;;;;;5.75;2.30;;;;;;;;;;5035287;28;20048;-74
2023/09/24 11:53:46;;;;;;;4.65;2.00;;;;;;;;;;5019145;28;20049;-74
2023/09/24 11:56:13;;;;;;;4.35;1.80;;;;;;;;;;5015729;28;20040;-75
2023/09/24 11:58:39;;;;;;;4.65;2.10;;;;;;;;;;5035525;28;20090;-75
2023/09/24 12:01:08;;;;;;;4.13;1.67;;;;;;;;;;5033665;28;20117;-74
2023/09/24 12:03:35;;;;;;;5.93;2.33;;;;;;;;;;5028876;28;20049;-75
2023/09/24 12:06:01;;;;;;;5.38;2.20;;;;;;;;;;5032816;28;20461;-75
2023/09/24 12:08:27;;;;;;;4.85;1.80;;;;;;;;;;5028811;28;20040;-75
2023/09/24 12:10:54;;;;;;;5.18;2.08;;;;;;;;;;5037686;28;20045;-75
2023/09/24 12:13:20;;;;;;;3.50;2.15;;;;;;;;;;5029574;28;20396;-75
2023/09/24 12:15:47;;;;;;;5.47;2.00;;;;;;;;;;5028814;28;20049;-75
2023/09/24 12:18:13;;;;;;;5.28;2.42;;;;;;;;;;5028668;28;20079;-75
2023/09/24 12:20:40;;;;;;;5.97;2.10;;;;;;;;;;5034734;28;20560;-75
2023/09/24 12:23:07;;;;;;;9.30;2.17;;;;;;;;;;5011926;28;20128;-75
2023/09/24 12:25:37;;;;;;;7.63;2.72;;;;;;;;;;5032091;28;20098;-75
2023/09/24 12:28:07;;;;;;;4.88;2.03;;;;;;;;;;5030225;28;20041;-74
2023/09/24 12:30:33;;;;;;;5.85;1.95;;;;;;;;;;5030001;28;20062;-75
2023/09/24 12:32:59;;;;;;;5.20;2.05;;;;;;;;;;5031795;28;20489;-75
2023/09/24 12:35:25;;;;;;;3.38;1.73;;;;;;;;;;5015248;28;20620;-74
2023/09/24 12:37:54;;;;;;;4.97;1.98;;;;;;;;;;5030170;28;20481;-74
2023/09/24 12:40:21;;;;;;;4.82;1.83;;;;;;;;;;5028607;28;20341;-74
2023/09/24 12:42:48;;;;;;;6.70;2.15;;;;;;;;;;5024304;28;20051;-74
2023/09/24 12:45:14;;;;;;;7.55;1.73;;;;;;;;;;5026823;28;20059;-74
2023/09/24 12:47:41;;;;;;;4.25;2.30;;;;;;;;;;5028073;28;20471;-75
2023/09/24 12:50:08;;;;;;;3.33;1.95;;;;;;;;;;5026123;28;20094;-75
2023/09/24 12:52:36;;;;;;;4.10;2.10;;;;;;;;;;5030765;28;20051;-75
2023/09/24 12:55:03;;;;;;;3.13;1.88;;;;;;;;;;5031911;28;20040;-75
2023/09/24 12:57:33;;;;;;;2.80;1.70;;;;;;;;;;5012285;28;20131;-75
2023/09/24 13:00:00;;;;;;;3.03;1.58;;;;;;;;;;5012525;28;20049;-75
2023/09/24 13:02:26;;;;;;;6.60;1.90;;;;;;;;;;5026781;28;20061;-73
2023/09/24 13:04:52;;;;;;;6.53;1.75;;;;;;;;;;5027598;28;20056;-73
2023/09/24 13:07:19;;;;;;;3.42;1.42;;;;;;;;;;5023932;28;20098;-73
2023/09/24 13:09:45;;;;;;;3.53;1.50;;;;;;;;;;5021988;28;20048;-73
2023/09/24 13:12:12;;;;;;;5.85;1.80;;;;;;;;;;4999893;28;20085;-73
2023/09/24 13:14:39;;;;;;;4.32;1.80;;;;;;;;;;5024383;28;20496;-73
2023/09/24 13:17:05;;;;;;;5.22;1.70;;;;;;;;;;5026923;28;20162;-73
2023/09/24 13:19:31;;;;;;;4.78;1.60;;;;;;;;;;5026663;28;20056;-73
2023/09/24 13:21:57;;;;;;;4.18;1.80;;;;;;;;;;5030445;28;20090;-73
2023/09/24 13:24:23;;;;;;;3.65;1.30;;;;;;;;;;5030500;28;20052;-73
2023/09/24 13:26:50;;;;;;;4.05;2.10;;;;;;;;;;5027909;28;20040;-74
2023/09/24 13:29:16;;;;;;;7.15;1.48;;;;;;;;;;5034027;28;20044;-73
2023/09/24 13:31:44;;;;;;;4.22;1.50;;;;;;;;;;5034471;28;20057;-74
2023/09/24 13:34:11;;;;;;;3.05;1.52;;;;;;;;;;5036893;28;20099;-73
2023/09/24 13:36:37;;;;;;;2.95;0.90;;;;;;;;;;5035569;28;20049;-73
2023/09/24 13:39:03;;;;;;;4.65;1.90;;;;;;;;;;5025653;28;20041;-74
2023/09/24 13:41:30;;;;;;;2.75;1.33;;;;;;;;;;5008825;28;20045;-74
2023/09/24 13:43:56;;;;;;;5.30;1.17;;;;;;;;;;5012868;28;20045;-74
2023/09/24 13:46:22;;;;;;;4.82;1.50;;;;;;;;;;5012024;28;20045;-74
2023/09/24 13:48:49;;;;;;;3.40;1.42;;;;;;;;;;5030253;28;20052;-75
2023/09/24 13:51:16;;;;;;;6.07;1.98;;;;;;;;;;5019488;28;20461;-74
2023/09/24 13:53:42;;;;;;;2.40;1.20;;;;;;;;;;5007028;28;20859;-74
2023/09/24 13:56:15;;;;;;;3.90;1.33;;;;;;;;;;5032729;28;20077;-74
2023/09/24 13:58:41;;;;;;;3.47;1.40;;;;;;;;;;5035913;28;20867;-74
2023/09/24 14:01:08;;;;;;;3.47;1.38;;;;;;;;;;5034083;28;20051;-74
2023/09/24 14:03:34;;;;;;;3.58;1.30;;;;;;;;;;5035825;28;20055;-74
2023/09/24 14:06:01;;;;;;;4.03;1.50;;;;;;;;;;5019786;28;20132;-74
2023/09/24 14:14:04;;;;;;;4.80;1.50;;;;;;;;;;5034976;28;22013;-74
2023/09/24 14:16:31;;;;;;;6.95;1.50;;;;;;;;;;5033282;28;20051;-74
2023/09/24 14:18:57;;;;;;;6.78;1.83;;;;;;;;;;5035998;28;20162;-75
2023/09/24 14:21:23;;;;;;;4.18;1.52;;;;;;;;;;5028312;28;20048;-75
2023/09/24 14:23:49;;;;;;;4.95;1.73;;;;;;;;;;5035282;28;20044;-74
2023/09/24 14:26:15;;;;;;;4.55;1.42;;;;;;;;;;5031781;28;21034;-74
2023/09/24 14:28:41;;;;;;;4.50;1.75;;;;;;;;;;5032673;28;20049;-75
